Time;durP1;ratioP1;P1;durP2;ratioP2;P2;SDS_P1;SDS_P2;PMS_P1;PMS_P2;Temp;Humidity;BMP_temperature;BMP_pressure;BME280_temperature;BME280_humidity;BME280_pressure;Samples;Min_cycle;Max_cycle;Signal;HPM_P1;HPM_P2
2023/03/17 00:00:03;;;;;;;15.73;9.90;;;;;;;4.05;95.00;95600.25;4943992;28;20054;-65
2023/03/17 00:02:29;;;;;;;10.90;7.40;;;;;;;4.08;94.89;95594.84;4943818;28;20028;-64
2023/03/17 00:04:55;;;;;;;11.77;8.27;;;;;;;4.24;93.21;95592.84;4945712;28;20087;-64
2023/03/17 00:07:21;;;;;;;10.43;7.70;;;;;;;4.25;93.47;95591.09;4953644;28;21198;-64
2023/03/17 00:09:46;;;;;;;11.20;7.95;;;;;;;4.22;93.18;95589.53;4949847;28;20034;-64
2023/03/17 00:12:12;;;;;;;10.25;7.88;;;;;;;4.15;94.47;95596.94;4947032;28;20035;-64
2023/03/17 00:14:38;;;;;;;8.55;6.78;;;;;;;4.12;94.21;95591.13;4953057;28;20139;-66
2023/03/17 00:17:03;;;;;;;12.35;7.50;;;;;;;4.10;94.52;95583.38;4950948;28;20095;-65
2023/03/17 00:19:32;;;;;;;12.13;7.50;;;;;;;4.08;94.70;95579.22;4951860;28;20058;-65
2023/03/17 00:21:59;;;;;;;10.93;7.13;;;;;;;4.05;94.96;95576.81;4954705;28;20035;-64
2023/03/17 00:24:25;;;;;;;12.38;8.00;;;;;;;4.05;93.91;95585.47;4951548;28;20038;-65
2023/03/17 00:26:50;;;;;;;11.68;8.50;;;;;;;4.16;93.22;95590.78;4950101;28;20027;-64
2023/03/17 00:29:16;;;;;;;13.15;7.78;;;;;;;4.06;93.48;95581.94;4936346;29;20035;-64
2023/03/17 00:31:44;;;;;;;11.30;7.78;;;;;;;4.03;95.04;95589.13;4950454;28;20511;-64
2023/03/17 00:34:17;;;;;;;7.22;6.47;;;;;;;4.00;94.19;95583.19;4949664;28;20604;-65
2023/03/17 00:36:45;;;;;;;8.43;7.28;;;;;;;4.04;94.93;95582.97;4948422;28;20043;-65
2023/03/17 00:39:15;;;;;;;8.40;6.72;;;;;;;4.15;93.54;95575.25;4950248;28;20040;-64
2023/03/17 00:41:41;;;;;;;9.57;6.35;;;;;;;4.09;93.85;95573.06;4957771;28;20018;-64
2023/03/17 00:44:06;;;;;;;9.77;6.13;;;;;;;4.10;92.90;95574.75;4949853;28;20361;-64
2023/03/17 00:46:36;;;;;;;7.20;6.50;;;;;;;4.18;92.53;95577.66;4947391;28;20026;-64
2023/03/17 00:49:09;;;;;;;6.40;5.80;;;;;;;4.07;93.18;95578.38;4935901;28;20067;-64
2023/03/17 00:51:35;;;;;;;7.35;6.15;;;;;;;4.05;94.00;95579.41;4943811;28;20050;-64
2023/03/17 00:54:00;;;;;;;6.47;5.78;;;;;;;3.96;95.14;95575.66;4947436;28;20023;-64
2023/03/17 00:56:26;;;;;;;8.85;5.10;;;;;;;3.97;95.08;95569.50;4948358;28;20107;-64
2023/03/17 00:58:52;;;;;;;5.55;4.97;;;;;;;3.86;95.78;95572.84;4945953;28;20472;-65
2023/03/17 01:01:17;;;;;;;9.93;5.53;;;;;;;3.81;95.73;95573.19;4947483;28;20115;-64
2023/03/17 01:03:43;;;;;;;5.03;4.53;;;;;;;3.77;95.84;95569.13;4945082;28;20090;-64
2023/03/17 01:06:11;;;;;;;8.90;5.30;;;;;;;3.90;94.06;95579.53;4954181;28;20051;-64
2023/03/17 01:08:39;;;;;;;5.72;4.97;;;;;;;3.90;94.08;95573.47;4951803;28;20479;-65
2023/03/17 01:11:05;;;;;;;5.43;4.30;;;;;;;3.86;95.04;95588.47;4955137;28;20464;-64
2023/03/17 01:13:31;;;;;;;10.05;5.03;;;;;;;3.83;95.21;95591.28;4958601;28;20139;-64
2023/03/17 01:15:56;;;;;;;6.38;4.32;;;;;;;3.85;94.85;95579.00;4952237;28;20035;-65
2023/03/17 01:18:23;;;;;;;5.15;4.40;;;;;;;3.66;95.78;95572.44;4954509;28;20028;-64
2023/03/17 01:20:49;;;;;;;6.85;4.75;;;;;;;3.58;97.12;95567.75;4953516;28;20031;-64
2023/03/17 01:23:15;;;;;;;5.93;4.38;;;;;;;3.57;96.67;95565.22;4957817;28;20027;-64
2023/03/17 01:25:43;;;;;;;4.70;4.20;;;;;;;3.84;95.75;95562.53;4952409;28;20038;-64
2023/03/17 01:28:13;;;;;;;9.05;4.50;;;;;;;3.93;94.29;95562.84;4946400;28;20039;-64
2023/03/17 01:30:39;;;;;;;9.40;5.45;;;;;;;4.16;94.17;95569.13;4954786;28;20043;-64
2023/03/17 01:33:10;;;;;;;9.30;5.45;;;;;;;3.84;95.46;95569.50;4951564;28;20535;-64
2023/03/17 01:35:37;;;;;;;7.18;5.43;;;;;;;3.74;95.73;95553.66;4948839;28;20031;-64
2023/03/17 01:38:03;;;;;;;6.50;5.00;;;;;;;3.67;96.34;95550.66;4954299;29;20097;-64
2023/03/17 01:40:32;;;;;;;9.48;5.53;;;;;;;3.60;96.75;95543.38;4952357;28;20554;-64
2023/03/17 01:43:07;;;;;;;10.45;5.28;;;;;;;3.78;94.82;95551.72;4955483;28;20090;-64
2023/03/17 01:46:10;;;;;;;8.52;5.28;;;;;;;3.75;94.99;95542.31;4955722;28;20031;-64
2023/03/17 01:48:41;;;;;;;7.20;5.22;;;;;;;3.73;95.48;95539.00;4953421;28;20038;-64
2023/03/17 01:51:12;;;;;;;7.43;5.72;;;;;;;3.70;95.38;95534.00;4954564;28;20039;-64
2023/03/17 01:53:38;;;;;;;11.10;5.90;;;;;;;3.63;95.94;95528.34;4945472;28;20118;-64
2023/03/17 01:56:05;;;;;;;7.07;5.30;;;;;;;3.59;96.24;95532.09;4948702;28;20027;-65
2023/03/17 01:58:32;;;;;;;6.72;5.20;;;;;;;3.47;97.36;95528.56;4949781;28;20038;-64
2023/03/17 02:00:58;;;;;;;6.70;5.70;;;;;;;3.42;97.41;95526.25;4940526;28;20060;-64
2023/03/17 02:03:24;;;;;;;7.85;5.55;;;;;;;3.39;97.36;95529.06;4948982;28;20114;-64
2023/03/17 02:05:52;;;;;;;6.25;5.57;;;;;;;3.41;96.86;95524.59;4953087;28;20080;-64
2023/03/17 02:08:17;;;;;;;6.97;5.40;;;;;;;3.44;95.75;95528.75;4952236;28;20115;-64
2023/03/17 02:10:46;;;;;;;9.05;5.65;;;;;;;3.39;95.78;95521.25;4955825;28;20063;-64
2023/03/17 02:13:12;;;;;;;9.32;5.43;;;;;;;3.31;97.04;95520.94;4949764;28;20396;-64
2023/03/17 02:15:39;;;;;;;6.63;4.97;;;;;;;3.39;95.87;95526.47;4954322;28;20403;-64
2023/03/17 02:18:06;;;;;;;6.82;4.53;;;;;;;3.50;95.62;95515.34;4954653;28;20087;-65
2023/03/17 02:20:31;;;;;;;4.50;3.55;;;;;;;3.51;95.40;95518.78;4950121;28;20023;-65
2023/03/17 02:22:59;;;;;;;5.18;4.28;;;;;;;3.62;95.29;95516.28;4950254;28;20047;-64
2023/03/17 02:25:27;;;;;;;5.10;4.15;;;;;;;3.64;94.90;95516.19;4942460;28;20408;-65
2023/03/17 02:27:58;;;;;;;8.18;6.15;;;;;;;3.47;95.92;95519.94;4952908;28;20031;-64
2023/03/17 02:30:24;;;;;;;6.97;4.60;;;;;;;3.56;95.48;95507.13;4950057;28;20035;-64
2023/03/17 02:32:50;;;;;;;9.48;4.40;;;;;;;3.41;97.12;95502.94;4953523;28;20032;-64
2023/03/17 02:35:17;;;;;;;4.20;3.75;;;;;;;3.30;97.64;95507.09;4954677;28;20380;-65
2023/03/17 02:37:44;;;;;;;5.43;3.13;;;;;;;3.28;97.05;95495.94;4953422;28;20031;-64
2023/03/17 02:40:12;;;;;;;4.45;3.30;;;;;;;3.57;96.30;95489.72;4951280;28;20500;-65
2023/03/17 02:42:40;;;;;;;7.93;3.25;;;;;;;3.93;96.42;95493.38;4959853;28;20491;-65
2023/03/17 02:45:08;;;;;;;3.75;3.45;;;;;;;3.86;96.66;95492.09;4945834;28;20035;-65
2023/03/17 02:47:34;;;;;;;3.78;3.33;;;;;;;3.80;96.58;95487.31;4953859;28;20050;-64
2023/03/17 02:50:00;;;;;;;4.85;3.40;;;;;;;3.70;99.12;95487.97;4951910;29;20039;-64
2023/03/17 02:52:25;;;;;;;8.50;4.30;;;;;;;3.72;97.50;95485.25;4949842;28;20023;-64
2023/03/17 02:54:51;;;;;;;4.35;3.72;;;;;;;3.66;97.74;95481.31;4949589;28;20048;-64
2023/03/17 02:57:16;;;;;;;5.55;4.57;;;;;;;3.91;97.36;95490.03;4953109;28;20487;-64
2023/03/17 02:59:42;;;;;;;10.45;6.13;;;;;;;3.81;97.62;95487.22;4941360;28;20524;-64
2023/03/17 03:02:08;;;;;;;7.65;5.40;;;;;;;3.64;99.12;95480.56;4947324;28;20035;-64
2023/03/17 03:04:34;;;;;;;10.55;5.40;;;;;;;3.58;98.87;95475.78;4947592;28;20550;-64
2023/03/17 03:07:00;;;;;;;5.55;4.50;;;;;;;3.65;97.85;95484.84;4952175;28;20035;-65
2023/03/17 03:09:26;;;;;;;6.97;4.60;;;;;;;3.55;97.91;95478.59;4953995;28;20085;-65
2023/03/17 03:11:51;;;;;;;5.72;4.63;;;;;;;3.52;98.09;95484.00;4947702;28;20106;-64
2023/03/17 03:14:16;;;;;;;9.48;5.18;;;;;;;3.35;98.82;95483.38;4952398;28;20049;-64
2023/03/17 03:16:42;;;;;;;9.68;5.05;;;;;;;3.29;99.22;95476.78;4953607;28;20055;-64
2023/03/17 03:19:08;;;;;;;7.97;5.95;;;;;;;3.40;98.33;95481.28;4951150;28;20027;-65
2023/03/17 03:21:35;;;;;;;8.15;5.43;;;;;;;3.36;98.56;95474.63;4951886;28;20630;-64
2023/03/17 03:24:01;;;;;;;6.85;5.82;;;;;;;3.33;98.93;95468.81;4949634;28;20023;-64
2023/03/17 03:26:27;;;;;;;11.10;5.93;;;;;;;3.45;96.98;95475.78;4942245;28;20034;-64
2023/03/17 03:28:52;;;;;;;10.68;5.28;;;;;;;3.45;97.38;95473.16;4953529;28;20127;-65
2023/03/17 03:31:18;;;;;;;8.07;5.40;;;;;;;3.43;97.02;95473.28;4949369;28;20027;-64
2023/03/17 03:33:44;;;;;;;6.10;4.97;;;;;;;3.37;97.26;95471.06;4945785;28;20020;-64
2023/03/17 03:36:10;;;;;;;8.35;5.35;;;;;;;3.34;96.94;95484.31;4958859;28;20031;-64
2023/03/17 03:38:35;;;;;;;7.07;4.72;;;;;;;3.25;97.20;95475.34;4953037;28;20031;-64
2023/03/17 03:41:01;;;;;;;12.80;5.57;;;;;;;3.52;96.61;95490.03;4950588;28;20066;-65
2023/03/17 03:43:26;;;;;;;7.05;5.20;;;;;;;3.24;97.06;95483.25;4937890;28;20020;-64
2023/03/17 03:45:53;;;;;;;9.35;5.47;;;;;;;3.08;98.87;95476.47;4952871;28;20061;-64
2023/03/17 03:48:20;;;;;;;6.07;5.05;;;;;;;2.98;99.36;95478.84;4956316;28;20141;-65
2023/03/17 03:50:45;;;;;;;6.30;4.68;;;;;;;3.14;97.68;95489.06;4940415;28;20023;-64
2023/03/17 03:53:11;;;;;;;5.82;4.72;;;;;;;3.06;98.18;95483.53;4942432;28;20039;-64
2023/03/17 03:55:36;;;;;;;5.30;4.13;;;;;;;3.21;97.14;95483.47;4950282;28;20456;-64
2023/03/17 03:58:02;;;;;;;6.90;4.88;;;;;;;3.30;96.66;95478.47;4946969;28;20042;-65
2023/03/17 04:00:27;;;;;;;7.38;4.95;;;;;;;3.21;97.95;95489.50;4955164;28;20043;-65
2023/03/17 04:02:52;;;;;;;5.88;4.75;;;;;;;3.15;96.92;95490.72;4953601;28;20019;-65
2023/03/17 04:05:18;;;;;;;10.00;4.90;;;;;;;3.32;96.80;95487.97;4950375;28;20480;-64
2023/03/17 04:07:44;;;;;;;7.63;5.15;;;;;;;3.35;96.64;95490.34;4950726;28;20062;-64
2023/03/17 04:10:11;;;;;;;5.95;4.88;;;;;;;3.26;97.04;95500.41;4945204;28;20496;-64
2023/03/17 04:12:38;;;;;;;7.47;6.00;;;;;;;3.15;97.96;95501.13;4946687;28;20032;-64
2023/03/17 04:15:05;;;;;;;10.68;6.10;;;;;;;3.12;99.44;95505.72;4946872;28;20031;-64
2023/03/17 04:17:30;;;;;;;5.03;4.53;;;;;;;2.98;99.20;95504.00;4952334;28;20059;-64
2023/03/17 04:19:56;;;;;;;5.28;3.28;;;;;;;3.12;99.40;95501.34;4936770;28;20035;-64
2023/03/17 04:22:21;;;;;;;3.92;3.58;;;;;;;3.36;98.33;95505.03;4939029;28;20114;-65
2023/03/17 04:24:47;;;;;;;6.50;3.90;;;;;;;3.34;97.86;95505.13;4955920;28;20038;-65
2023/03/17 04:27:14;;;;;;;4.78;3.63;;;;;;;3.29;97.97;95504.59;4947550;28;20564;-65
2023/03/17 04:29:41;;;;;;;4.03;3.55;;;;;;;3.21;98.61;95510.31;4949090;28;20024;-64
2023/03/17 04:32:07;;;;;;;4.65;3.63;;;;;;;3.19;98.06;95504.38;4940583;28;20085;-64
2023/03/17 04:34:32;;;;;;;5.65;5.07;;;;;;;3.42;97.25;95502.00;4951268;28;20023;-64
2023/03/17 04:36:58;;;;;;;6.10;5.13;;;;;;;3.23;98.66;95502.41;4939923;28;20016;-64
2023/03/17 04:39:23;;;;;;;5.50;5.00;;;;;;;3.36;97.63;95495.44;4948767;28;20630;-64
2023/03/17 04:41:49;;;;;;;5.20;4.80;;;;;;;3.41;97.58;95501.16;4952070;28;20062;-65
2023/03/17 04:44:14;;;;;;;7.70;5.43;;;;;;;3.32;97.33;95511.38;4960628;28;20975;-64
2023/03/17 04:46:40;;;;;;;10.43;6.63;;;;;;;3.28;97.31;95511.56;4959262;29;20031;-64
2023/03/17 04:49:07;;;;;;;10.40;6.63;;;;;;;3.05;98.48;95518.28;4959177;28;20203;-64
2023/03/17 04:51:34;;;;;;;8.35;6.45;;;;;;;2.92;98.88;95515.66;4959766;28;20023;-65
2023/03/17 04:54:00;;;;;;;8.38;6.65;;;;;;;3.08;97.89;95512.03;4960146;28;20049;-65
2023/03/17 04:56:25;;;;;;;8.68;5.68;;;;;;;2.91;98.79;95516.59;4959738;28;20102;-65
2023/03/17 04:58:51;;;;;;;7.93;6.30;;;;;;;2.90;100.00;95520.13;4959160;28;20023;-65
2023/03/17 05:01:16;;;;;;;10.55;6.50;;;;;;;2.89;99.91;95513.25;4959366;28;20106;-65
2023/03/17 05:03:42;;;;;;;10.45;5.82;;;;;;;2.97;99.64;95510.97;4943705;28;20572;-65
2023/03/17 05:06:08;;;;;;;6.97;5.28;;;;;;;3.05;98.30;95505.28;4952844;28;20082;-64
2023/03/17 05:08:34;;;;;;;6.07;5.32;;;;;;;2.92;99.12;95512.19;4959793;28;20019;-64
2023/03/17 05:11:00;;;;;;;7.60;6.15;;;;;;;2.78;99.85;95513.09;4957396;28;20109;-65
2023/03/17 05:13:26;;;;;;;7.13;4.90;;;;;;;2.77;100.00;95499.28;4949843;28;20035;-64
2023/03/17 05:15:54;;;;;;;7.32;5.13;;;;;;;2.77;100.00;95511.44;4956726;28;20396;-65
2023/03/17 05:18:22;;;;;;;7.55;5.63;;;;;;;2.74;99.92;95499.44;4959659;29;20019;-65
2023/03/17 05:20:47;;;;;;;8.90;5.28;;;;;;;2.88;99.17;95505.53;4946989;28;20031;-65
2023/03/17 05:23:12;;;;;;;6.13;5.28;;;;;;;2.70;100.00;95504.03;4959273;28;20030;-64
2023/03/17 05:25:39;;;;;;;11.00;4.63;;;;;;;2.63;100.00;95496.72;4946804;28;20030;-65
2023/03/17 05:28:05;;;;;;;13.88;10.70;;;;;;;2.77;100.00;95503.63;4948937;28;20103;-65
2023/03/17 05:30:31;;;;;;;14.93;11.25;;;;;;;2.81;100.00;95492.94;4940963;28;20027;-65
2023/03/17 05:32:58;;;;;;;16.15;12.73;;;;;;;2.91;99.93;95500.13;4951144;28;20058;-65
2023/03/17 05:35:23;;;;;;;21.27;13.85;;;;;;;2.83;99.87;95493.66;4958932;28;20027;-64
2023/03/17 05:37:49;;;;;;;17.63;13.30;;;;;;;2.78;100.00;95494.88;4949045;28;20052;-65
2023/03/17 05:40:15;;;;;;;20.38;14.18;;;;;;;2.80;100.00;95482.63;4956932;28;20086;-65
2023/03/17 05:42:41;;;;;;;15.88;11.50;;;;;;;2.84;100.00;95490.13;4955645;28;20019;-64
2023/03/17 05:45:07;;;;;;;14.23;11.27;;;;;;;2.72;100.00;95491.75;4949507;28;20106;-64
2023/03/17 05:47:33;;;;;;;15.35;10.90;;;;;;;2.68;100.00;95486.84;4958546;28;20019;-64
2023/03/17 05:49:59;;;;;;;13.18;9.23;;;;;;;2.66;100.00;95481.75;4958630;28;20097;-64
2023/03/17 05:52:26;;;;;;;16.80;9.07;;;;;;;2.75;100.00;95482.09;4946145;28;20023;-64
2023/03/17 05:54:53;;;;;;;12.90;10.13;;;;;;;2.75;100.00;95485.50;4958219;28;20623;-65
2023/03/17 05:57:19;;;;;;;12.63;9.27;;;;;;;2.81;100.00;95489.50;4957369;28;20023;-65
2023/03/17 05:59:44;;;;;;;11.90;8.70;;;;;;;2.96;98.87;95483.31;4958062;28;20090;-64
2023/03/17 06:02:11;;;;;;;13.30;10.25;;;;;;;2.95;99.33;95478.19;4958563;28;20019;-65
2023/03/17 06:04:37;;;;;;;16.55;11.10;;;;;;;2.84;100.00;95484.09;4955577;28;20455;-65
2023/03/17 06:07:03;;;;;;;16.17;11.90;;;;;;;2.85;100.00;95488.34;4956052;28;20023;-65
2023/03/17 06:09:29;;;;;;;16.55;9.93;;;;;;;2.98;99.33;95493.59;4958781;28;20476;-65
2023/03/17 06:11:55;;;;;;;16.58;10.90;;;;;;;2.96;99.36;95500.66;4953924;28;20111;-65
2023/03/17 06:14:20;;;;;;;17.08;11.35;;;;;;;2.92;100.00;95491.41;4960200;28;20057;-65
2023/03/17 06:16:46;;;;;;;17.52;12.48;;;;;;;2.88;100.00;95497.72;4958445;28;20027;-65
2023/03/17 06:19:11;;;;;;;15.50;11.45;;;;;;;3.08;99.51;95499.03;4942331;28;20040;-65
2023/03/17 06:21:37;;;;;;;13.05;10.10;;;;;;;3.03;99.09;95504.53;4939923;28;20032;-65
2023/03/17 06:24:02;;;;;;;17.35;10.82;;;;;;;3.15;98.43;95500.31;4943909;28;20124;-64
2023/03/17 06:26:28;;;;;;;13.45;10.63;;;;;;;3.11;98.97;95506.66;4958295;28;20026;-65
2023/03/17 06:28:54;;;;;;;12.38;10.25;;;;;;;3.20;98.14;95510.38;4957420;28;20473;-65
2023/03/17 06:31:19;;;;;;;14.23;9.23;;;;;;;3.33;97.69;95508.66;4949207;28;20489;-64
2023/03/17 06:33:45;;;;;;;11.07;8.13;;;;;;;3.49;97.52;95518.88;4945123;28;20063;-67
2023/03/17 06:36:10;;;;;;;10.30;7.85;;;;;;;3.43;97.28;95522.75;4949479;28;20039;-64
2023/03/17 06:38:35;;;;;;;8.73;7.40;;;;;;;3.57;96.92;95524.41;4953674;28;20091;-64
2023/03/17 06:41:02;;;;;;;12.20;7.47;;;;;;;3.69;95.25;95529.72;4947337;28;20031;-64
2023/03/17 06:43:27;;;;;;;7.43;6.57;;;;;;;3.77;94.90;95529.22;4970739;28;20511;-62
2023/03/17 06:45:53;;;;;;;7.88;7.07;;;;;;;3.83;95.80;95520.97;4946839;28;20170;-64
2023/03/17 06:48:18;;;;;;;9.25;6.97;;;;;;;3.83;96.28;95520.97;4950348;28;20027;-64
2023/03/17 06:50:46;;;;;;;7.95;6.95;;;;;;;3.88;96.18;95526.72;4950871;28;20553;-65
2023/03/17 06:53:12;;;;;;;10.88;6.97;;;;;;;4.14;94.88;95529.31;4957179;28;20038;-64
2023/03/17 06:55:37;;;;;;;9.65;6.28;;;;;;;4.21;93.75;95522.72;4953208;28;20106;-66
2023/03/17 06:58:03;;;;;;;12.20;9.32;;;;;;;4.41;92.98;95528.31;4954238;28;20139;-65
2023/03/17 07:00:29;;;;;;;12.07;6.85;;;;;;;4.41;92.79;95510.06;4953971;28;20040;-64
2023/03/17 07:02:54;;;;;;;8.77;6.78;;;;;;;4.55;92.53;95514.28;4955264;29;20095;-64
2023/03/17 07:05:20;;;;;;;9.18;6.68;;;;;;;4.49;93.41;95502.50;4956204;28;20061;-64
2023/03/17 07:07:45;;;;;;;11.45;7.32;;;;;;;4.55;93.62;95503.88;4953652;28;20031;-68
2023/03/17 07:10:12;;;;;;;9.32;8.27;;;;;;;4.64;93.02;95505.84;4951165;28;20054;-67
2023/03/17 07:12:38;;;;;;;12.45;7.47;;;;;;;4.86;92.60;95504.25;4937944;28;20059;-66
2023/03/17 07:15:04;;;;;;;9.18;6.03;;;;;;;4.99;92.30;95501.59;4950855;28;20031;-66
2023/03/17 07:17:29;;;;;;;6.35;4.88;;;;;;;5.14;90.01;95512.69;4955636;28;20076;-64
2023/03/17 07:19:54;;;;;;;11.52;5.47;;;;;;;5.22;89.45;95519.97;4955911;28;20032;-66
2023/03/17 07:22:21;;;;;;;9.35;5.35;;;;;;;5.37;89.61;95510.16;4952814;28;20076;-66
2023/03/17 07:24:47;;;;;;;11.75;5.68;;;;;;;5.44;89.92;95516.56;4955405;28;20031;-64
2023/03/17 07:27:16;;;;;;;8.50;6.30;;;;;;;5.56;88.43;95514.81;4954016;28;20050;-65
2023/03/17 07:29:41;;;;;;;8.95;6.60;;;;;;;5.65;88.90;95511.53;4954650;28;20035;-65
2023/03/17 07:32:08;;;;;;;6.72;5.95;;;;;;;5.77;88.30;95511.53;4952091;28;20110;-65
2023/03/17 07:34:34;;;;;;;10.10;6.53;;;;;;;5.97;87.46;95510.03;4953508;28;20110;-65
2023/03/17 07:37:00;;;;;;;9.20;6.07;;;;;;;6.37;84.58;95503.50;4955919;28;20023;-66
2023/03/17 07:39:26;;;;;;;5.80;5.28;;;;;;;6.84;83.69;95511.97;4953907;28;20385;-66
2023/03/17 07:41:54;;;;;;;7.03;4.85;;;;;;;7.09;81.99;95507.38;4953568;28;20038;-66
2023/03/17 07:44:21;;;;;;;18.45;5.70;;;;;;;7.48;80.63;95513.88;4952520;28;20032;-66
2023/03/17 07:46:47;;;;;;;10.68;5.32;;;;;;;7.66;79.98;95514.13;4953307;28;20440;-67
2023/03/17 07:49:13;;;;;;;12.98;8.68;;;;;;;8.07;79.03;95514.22;4948452;28;20052;-65
2023/03/17 07:51:41;;;;;;;11.98;9.43;;;;;;;8.27;78.42;95521.19;4954272;28;20031;-66
2023/03/17 07:54:10;;;;;;;11.77;7.53;;;;;;;8.55;77.55;95513.63;4953030;28;20033;-66
2023/03/17 07:56:37;;;;;;;7.85;5.30;;;;;;;8.71;75.80;95515.72;4936439;29;20130;-64
2023/03/17 07:59:02;;;;;;;8.57;5.60;;;;;;;9.00;73.70;95508.88;4952985;28;20027;-64
2023/03/17 08:01:29;;;;;;;6.43;5.55;;;;;;;8.69;73.72;95501.06;4955238;28;20081;-64
2023/03/17 08:03:55;;;;;;;6.93;4.90;;;;;;;8.67;73.64;95498.59;4954784;28;20528;-65
2023/03/17 08:06:21;;;;;;;5.13;4.63;;;;;;;8.70;71.97;95511.44;4950482;28;20063;-65
2023/03/17 08:08:47;;;;;;;8.13;4.20;;;;;;;8.51;72.04;95509.59;4951979;28;20035;-65
2023/03/17 08:11:12;;;;;;;6.18;4.68;;;;;;;8.44;75.01;95500.56;4955562;28;20091;-65
2023/03/17 08:13:38;;;;;;;5.85;4.88;;;;;;;8.58;72.90;95507.25;4953071;28;20027;-65
2023/03/17 08:16:04;;;;;;;7.93;4.72;;;;;;;8.68;72.53;95499.41;4953746;28;20027;-65
2023/03/17 08:18:29;;;;;;;6.10;4.32;;;;;;;8.78;71.32;95499.44;4954943;28;20150;-65
2023/03/17 08:20:55;;;;;;;7.47;5.45;;;;;;;8.72;71.96;95493.75;4956506;28;20023;-65
2023/03/17 08:23:21;;;;;;;7.50;6.07;;;;;;;8.69;71.45;95494.03;4958247;28;20027;-67
2023/03/17 08:25:47;;;;;;;13.02;6.80;;;;;;;8.70;71.81;95495.69;4958936;28;20065;-65
2023/03/17 08:28:14;;;;;;;6.80;5.60;;;;;;;8.89;70.93;95488.81;4951277;28;20027;-65
2023/03/17 08:30:41;;;;;;;3.35;3.05;;;;;;;9.42;58.76;95492.84;4959414;28;20023;-65
2023/03/17 08:33:07;;;;;;;8.02;5.65;;;;;;;10.15;60.47;95485.34;4955530;28;20032;-65
2023/03/17 08:35:34;;;;;;;3.25;2.95;;;;;;;10.70;53.14;95487.19;4954793;28;20030;-65
2023/03/17 08:38:00;;;;;;;6.28;2.70;;;;;;;11.21;53.22;95475.34;4957309;28;20027;-65
2023/03/17 08:40:25;;;;;;;3.00;2.80;;;;;;;11.14;58.05;95486.44;4958500;28;20039;-66
2023/03/17 08:42:51;;;;;;;4.05;3.35;;;;;;;10.72;59.08;95487.84;4958188;28;20094;-65
2023/03/17 08:45:17;;;;;;;4.53;3.65;;;;;;;9.99;60.76;95478.88;4953203;28;20019;-65
2023/03/17 08:47:43;;;;;;;6.25;4.70;;;;;;;9.70;63.93;95487.69;4955633;28;20028;-65
2023/03/17 08:50:15;;;;;;;7.25;4.35;;;;;;;9.51;65.80;95482.44;4954399;28;20033;-65
2023/03/17 08:52:41;;;;;;;7.35;4.13;;;;;;;9.37;67.49;95478.47;4957167;28;20027;-67
2023/03/17 08:55:07;;;;;;;12.95;4.65;;;;;;;9.40;67.89;95492.16;4958346;28;20027;-66
2023/03/17 08:57:34;;;;;;;6.97;4.35;;;;;;;9.46;66.53;95483.72;4953751;28;20031;-65
2023/03/17 09:00:00;;;;;;;6.72;4.57;;;;;;;9.64;66.16;95480.38;4958778;28;20051;-65
2023/03/17 09:02:25;;;;;;;8.82;4.72;;;;;;;10.09;65.37;95473.59;4950794;28;20023;-66
2023/03/17 09:04:51;;;;;;;8.35;4.68;;;;;;;10.23;64.35;95482.81;4937955;28;20031;-66
2023/03/17 09:07:17;;;;;;;4.85;4.20;;;;;;;10.40;63.22;95480.38;4952761;28;20087;-66
2023/03/17 09:09:42;;;;;;;5.05;3.88;;;;;;;10.58;62.35;95480.44;4958473;28;20031;-66
2023/03/17 09:12:08;;;;;;;7.03;4.10;;;;;;;10.86;61.11;95469.91;4957650;28;20035;-66
2023/03/17 09:14:34;;;;;;;5.18;4.47;;;;;;;10.95;60.48;95476.91;4957314;28;20034;-66
2023/03/17 09:17:00;;;;;;;10.20;6.38;;;;;;;11.14;60.69;95470.66;4959194;28;20527;-66
2023/03/17 09:19:26;;;;;;;7.38;4.88;;;;;;;11.50;58.59;95469.81;4958732;28;20050;-66
2023/03/17 09:21:51;;;;;;;10.18;6.25;;;;;;;11.75;58.32;95468.16;4958874;28;20508;-66
2023/03/17 09:24:18;;;;;;;10.70;7.65;;;;;;;12.07;57.99;95470.38;4956669;28;20023;-65
2023/03/17 09:26:44;;;;;;;5.93;3.78;;;;;;;12.33;56.61;95467.69;4959046;28;20023;-68
2023/03/17 09:29:10;;;;;;;5.45;3.15;;;;;;;12.83;55.77;95475.78;4957033;28;20026;-69
2023/03/17 09:31:35;;;;;;;3.00;2.80;;;;;;;13.23;52.36;95471.53;4954143;28;20027;-68
2023/03/17 09:34:03;;;;;;;5.72;3.90;;;;;;;13.51;50.75;95462.50;4957478;28;20031;-68
2023/03/17 09:36:29;;;;;;;3.55;3.25;;;;;;;13.69;50.48;95465.81;4955013;28;20054;-68
2023/03/17 09:38:55;;;;;;;3.15;2.55;;;;;;;14.18;49.61;95466.69;4956356;28;20031;-68
2023/03/17 09:41:23;;;;;;;10.48;3.13;;;;;;;14.43;48.43;95463.97;4957686;28;20019;-68
2023/03/17 09:44:25;;;;;;;4.35;2.78;;;;;;;14.59;46.77;95448.00;4956630;28;20031;-68
2023/03/17 09:46:56;;;;;;;3.25;2.97;;;;;;;14.49;47.40;95452.69;4957772;28;20035;-68
2023/03/17 09:49:35;;;;;;;6.35;2.83;;;;;;;13.97;50.06;95444.25;4957448;28;20038;-69
2023/03/17 09:52:01;;;;;;;3.13;2.83;;;;;;;13.45;51.30;95442.84;4956301;28;20038;-69
2023/03/17 09:54:32;;;;;;;3.22;2.38;;;;;;;13.16;51.39;95441.47;4956628;28;20155;-69
2023/03/17 09:57:06;;;;;;;2.80;2.60;;;;;;;12.93;51.52;95450.03;4955774;28;20031;-69
2023/03/17 09:59:35;;;;;;;5.93;2.53;;;;;;;12.68;51.69;95441.22;4956196;28;20043;-68
2023/03/17 10:02:01;;;;;;;3.75;2.50;;;;;;;12.54;51.71;95440.03;4958315;28;20019;-68
2023/03/17 10:04:27;;;;;;;2.78;2.13;;;;;;;13.30;50.24;95440.84;4957218;28;20868;-69
2023/03/17 10:07:03;;;;;;;3.17;2.20;;;;;;;14.11;47.62;95428.69;4956470;28;20038;-69
2023/03/17 10:09:39;;;;;;;3.83;1.80;;;;;;;14.22;45.95;95430.94;4957053;28;20036;-68
2023/03/17 10:12:26;;;;;;;2.67;2.17;;;;;;;14.95;46.08;95436.06;4953691;28;20031;-69
2023/03/17 10:15:05;;;;;;;3.20;2.90;;;;;;;15.24;46.19;95431.88;4957726;29;20042;-69
2023/03/17 10:17:35;;;;;;;2.83;2.63;;;;;;;15.90;42.36;95431.34;4957298;28;20018;-70
2023/03/17 10:20:20;;;;;;;5.00;2.40;;;;;;;16.61;42.01;95430.03;4955721;28;20023;-70
2023/03/17 10:22:53;;;;;;;6.47;3.03;;;;;;;17.15;40.50;95430.66;4956111;28;20620;-68
2023/03/17 10:25:25;;;;;;;4.97;2.22;;;;;;;17.74;39.89;95430.53;4956526;28;20776;-67
2023/03/17 10:27:56;;;;;;;7.32;4.82;;;;;;;17.67;37.02;95419.00;4954885;28;20038;-68
2023/03/17 10:30:22;;;;;;;5.38;3.05;;;;;;;17.69;37.60;95414.34;4954261;28;20028;-68
2023/03/17 10:32:51;;;;;;;6.32;2.70;;;;;;;18.23;37.07;95412.84;4957672;28;20535;-68
2023/03/17 10:35:17;;;;;;;3.38;2.00;;;;;;;18.03;35.88;95413.56;4956845;28;20102;-68
2023/03/17 10:37:45;;;;;;;3.72;1.98;;;;;;;18.46;37.53;95406.41;4953531;28;20039;-68
2023/03/17 10:40:19;;;;;;;3.22;1.70;;;;;;;18.82;35.97;95410.63;4955099;28;20366;-67
2023/03/17 10:42:55;;;;;;;3.37;1.90;;;;;;;18.94;34.95;95413.53;4952322;28;20043;-68
2023/03/17 10:45:32;;;;;;;2.58;1.77;;;;;;;19.32;35.58;95425.53;4957806;28;20294;-68
2023/03/17 10:48:01;;;;;;;4.20;1.90;;;;;;;19.53;34.72;95424.53;4954337;28;20035;-68
2023/03/17 10:50:30;;;;;;;6.07;1.80;;;;;;;20.01;32.86;95428.03;4951297;28;20035;-68
2023/03/17 10:53:08;;;;;;;4.32;2.00;;;;;;;20.29;31.97;95430.44;4953364;28;20607;-68
2023/03/17 10:55:41;;;;;;;1.55;1.45;;;;;;;20.35;31.92;95426.13;4951830;28;20032;-68
2023/03/17 10:58:14;;;;;;;2.03;1.92;;;;;;;20.92;30.36;95428.19;4954982;28;20079;-67
2023/03/17 11:00:49;;;;;;;3.17;1.92;;;;;;;21.29;28.15;95422.19;4954078;28;20047;-67
2023/03/17 11:03:24;;;;;;;1.85;1.63;;;;;;;21.50;29.02;95425.56;4947121;28;20047;-67
2023/03/17 11:06:11;;;;;;;2.28;1.70;;;;;;;22.24;28.66;95415.06;4951866;28;20103;-67
2023/03/17 11:08:52;;;;;;;3.45;2.15;;;;;;;22.59;29.11;95403.75;4954486;28;20714;-73
2023/03/17 11:11:36;;;;;;;5.55;1.60;;;;;;;22.71;28.26;95411.03;4953157;28;20027;-70
2023/03/17 11:14:17;;;;;;;2.33;1.27;;;;;;;22.56;26.19;95409.56;4954221;28;20464;-70
2023/03/17 11:17:02;;;;;;;3.70;1.90;;;;;;;23.11;28.36;95399.78;4955205;28;20041;-69
2023/03/17 11:19:46;;;;;;;2.10;1.90;;;;;;;23.12;27.90;95398.72;4949115;28;20071;-69
2023/03/17 11:22:23;;;;;;;7.93;1.73;;;;;;;23.17;27.53;95398.03;4952369;28;20313;-66
2023/03/17 11:25:09;;;;;;;3.05;1.85;;;;;;;23.28;29.20;95399.13;4955457;28;20033;-66
2023/03/17 11:27:43;;;;;;;4.18;2.13;;;;;;;23.57;29.20;95397.44;4954153;28;20047;-66
2023/03/17 11:30:24;;;;;;;2.33;1.80;;;;;;;23.93;28.60;95391.28;4956845;28;20114;-66
2023/03/17 11:33:04;;;;;;;2.20;1.50;;;;;;;22.64;30.64;95391.50;4954472;28;20042;-66
2023/03/17 11:35:48;;;;;;;4.05;1.60;;;;;;;22.22;30.47;95394.84;4955178;28;20035;-65
2023/03/17 11:38:29;;;;;;;3.72;1.80;;;;;;;22.65;28.13;95391.28;4952536;28;20027;-66